Latest Weather Observations for Cowra

IDN60801

Issued at 12:03 pm EST Friday 27 May 2016 (issued every 30 minutes, with the page automatically refreshed every 10 minutes)

About weather observations | Map of weather stations | Latest weather observations for NSW | Other Formats
Station Details ID: 065111 Name: COWRA AIRPORT AWS Lat: -33.84 Lon: 148.65 Height: 300.4 m
Data from the previous 72 hours. | See also: Recent months at Cowra
Date/Time
EST
Temp
°C
App
Temp
°C
Dew
Point
Rel
Hum
%
Delta-T
°C
Wind Press
QNH
hPa
Press
MSL
hPa
Rain
since 9 am
mm
Dir
 
Spd
km/h
Gust
km/h
Spd
kts
Gust
kts
27/12:00pm 11.7 6.3 6.2 69 2.6 WSW 24 33 13 18 1008.7 - 0.0
27/11:30am 11.3 5.1 6.0 70 2.5 WSW 28 35 15 19 1008.8 - 0.0
27/11:16am 10.9 4.2 5.7 70 2.4 WSW 30 48 16 26 1009.0 - 0.0
27/11:00am 11.0 4.3 5.7 70 2.5 WSW 30 37 16 20 1009.2 - 0.0
27/10:30am 10.0 3.9 5.0 71 2.3 SW 26 32 14 17 1009.5 - 0.0
27/10:00am 9.5 6.1 5.7 77 1.8 WNW 13 17 7 9 1009.6 - 0.0
27/09:30am 9.3 5.4 5.3 76 1.8 W 15 22 8 12 1009.6 - 0.0
27/09:00am 9.0 5.1 5.4 78 1.7 NW 15 24 8 13 1009.4 1009.4 6.4
27/08:30am 7.8 5.3 6.7 93 0.5 WNW 9 15 5 8 1009.4 - 6.4
27/08:00am 6.9 4.0 6.3 96 0.3 N 11 15 6 8 1009.1 - 6.4
27/07:30am 6.4 2.6 6.0 97 0.2 N 15 19 8 10 1008.9 - 6.4
27/07:00am 6.5 3.2 4.7 88 0.8 NW 11 17 6 9 1008.9 - 6.4
27/06:30am 7.2 3.2 4.9 85 1.0 W 15 22 8 12 1008.7 - 6.4
27/06:00am 7.8 3.0 5.4 85 1.1 WSW 20 26 11 14 1008.3 1008.3 6.4
27/05:30am 7.5 2.6 5.3 86 1.0 WSW 20 26 11 14 1008.0 - 6.4
27/05:00am 8.0 3.2 5.6 85 1.1 WSW 20 26 11 14 1007.9 - 6.4
27/04:30am 8.3 2.4 5.6 83 1.2 WSW 26 32 14 17 1007.7 - 6.4
27/04:00am 9.0 3.5 6.1 82 1.4 WSW 24 32 13 17 1007.5 - 6.4
27/03:30am 9.6 4.6 6.3 80 1.6 WSW 22 30 12 16 1007.5 - 6.4
27/03:00am 9.6 5.0 6.5 81 1.5 WSW 20 30 11 16 1007.4 1007.4 6.4
27/02:30am 9.9 5.3 6.6 80 1.6 WSW 20 28 11 15 1007.6 - 6.4
27/02:00am 9.8 4.2 7.1 83 1.3 WSW 26 37 14 20 1007.6 - 6.4
27/01:52am 9.9 3.9 7.2 83 1.3 SW 28 41 15 22 1007.6 - 6.4
27/01:30am 10.0 6.1 7.1 82 1.4 WSW 17 20 9 11 1007.3 - 6.4
27/01:00am 9.6 5.2 6.5 81 1.5 WSW 19 22 10 12 1007.1 - 6.4
27/12:30am 10.2 6.3 6.9 80 1.6 WSW 17 22 9 12 1007.3 - 6.4
27/12:00am 10.7 6.8 7.0 78 1.8 W 17 22 9 12 1007.5 1007.4 6.4
 
Date/Time
EST
Temp
°C
App
Temp
°C
Dew
Point
Rel
Hum
%
Delta-T
°C
Wind Press
QNH
hPa
Press
MSL
hPa
Rain
since 9 am
mm
Dir
 
Spd
km/h
Gust
km/h
Spd
kts
Gust
kts
26/11:30pm 10.5 7.8 7.2 80 1.6 W 11 15 6 8 1007.3 - 6.4
26/11:00pm 10.3 7.1 6.8 79 1.7 W 13 17 7 9 1006.9 - 6.4
26/10:30pm 10.9 7.9 7.6 80 1.6 WSW 13 20 7 11 1007.1 - 6.4
26/10:00pm 11.7 6.5 7.4 75 2.1 WSW 24 35 13 19 1007.0 - 6.4
26/09:30pm 11.8 7.7 8.6 81 1.6 W 20 30 11 16 1006.9 - 6.4
26/09:00pm 11.6 7.7 8.6 82 1.5 W 19 24 10 13 1006.9 - 6.4
26/08:30pm 12.2 8.8 9.0 81 1.6 W 17 24 9 13 1006.7 - 6.4
26/08:00pm 12.2 8.5 9.4 83 1.4 W 19 26 10 14 1006.2 - 6.4
26/07:30pm 12.4 10.1 10.3 87 1.1 W 13 15 7 8 1006.0 - 6.4
26/07:00pm 11.9 11.1 11.6 98 0.2 NW 7 15 4 8 1005.7 - 6.4
26/06:30pm 12.1 11.4 11.9 99 0.1 NW 7 11 4 6 1005.5 - 6.4
26/06:00pm 12.2 12.1 12.0 99 0.1 NNW 4 9 2 5 1005.3 1005.3 6.4
26/05:30pm 12.3 11.6 12.1 99 0.1 NNW 7 9 4 5 1004.9 - 6.2
26/05:00pm 12.3 10.9 12.1 99 0.1 WSW 11 13 6 7 1004.5 - 6.2
26/04:30pm 12.8 11.4 12.3 97 0.3 NW 11 17 6 9 1004.3 - 4.0
26/04:00pm 12.7 11.0 12.5 99 0.1 NNW 13 17 7 9 1004.1 - 3.8
26/03:30pm 12.4 10.2 12.2 99 0.1 NW 15 22 8 12 1004.0 - 3.8
26/03:00pm 12.3 9.2 12.1 99 0.1 NW 20 32 11 17 1004.0 1003.9 3.8
26/02:30pm 12.2 9.0 12.0 99 0.1 NW 20 28 11 15 1003.8 - 3.8
26/02:00pm 11.9 7.5 11.7 99 0.1 NNW 26 35 14 19 1003.6 - 3.8
26/01:30pm 11.5 7.7 11.3 99 0.1 NNW 22 33 12 18 1004.4 - 3.8
26/01:00pm 11.2 7.8 11.2 100 0.0 NNW 20 26 11 14 1004.8 - 3.8
26/12:30pm 10.8 7.3 10.8 100 0.0 NNW 20 32 11 17 1005.5 - 3.8
26/12:00pm 10.6 7.0 10.6 100 0.0 NNW 20 35 11 19 1005.8 1005.8 3.8
26/11:30am 10.2 6.5 10.2 100 0.0 NNW 20 30 11 16 1006.5 - 3.4
26/11:00am 10.2 5.7 10.2 100 0.0 NNW 24 35 13 19 1007.2 - 3.2
26/10:30am 9.8 4.9 9.8 100 0.0 N 26 33 14 18 1007.4 - 3.0
26/10:00am 9.6 4.6 9.5 99 0.1 NNW 26 33 14 18 1007.4 - 2.4
26/09:30am 9.7 5.1 9.6 99 0.1 NNW 24 33 13 18 1007.4 - 1.2
26/09:00am 9.7 6.4 9.6 99 0.1 NNW 17 24 9 13 1007.7 1007.6 6.6
26/08:30am 9.6 5.9 9.5 99 0.1 NNW 19 26 10 14 1007.9 - 5.2
26/08:00am 10.1 6.7 9.2 94 0.5 N 17 20 9 11 1007.5 - 3.4
26/07:30am 9.9 6.9 9.1 95 0.4 N 15 20 8 11 1008.1 - 3.2
26/07:00am 9.9 6.4 8.8 93 0.5 N 17 22 9 12 1008.8 - 3.2
26/06:30am 9.7 7.1 9.2 97 0.3 N 13 19 7 10 1009.4 - 2.8
26/06:00am 9.7 5.9 8.9 95 0.4 N 19 24 10 13 1009.5 1009.5 2.6
26/05:30am 9.8 7.2 9.5 98 0.2 N 13 15 7 8 1009.7 - 2.6
26/05:00am 9.8 6.5 9.7 99 0.1 N 17 20 9 11 1010.0 - 2.4
26/04:30am 9.5 6.9 9.4 99 0.1 N 13 17 7 9 1010.8 - 2.0
26/04:00am 9.6 5.9 9.5 99 0.1 N 19 24 10 13 1011.5 - 1.6
26/03:30am 10.1 6.4 9.5 96 0.3 NNW 19 24 10 13 1012.0 - 1.2
26/03:00am 10.2 8.1 9.9 98 0.2 NNW 11 15 6 8 1012.4 1012.4 1.2
26/02:30am 10.1 9.0 9.9 99 0.1 N 6 13 3 7 1012.5 - 1.2
26/02:00am 10.0 8.7 9.9 99 0.1 E 7 11 4 6 1012.0 - 1.0
26/01:30am 10.0 9.6 9.9 99 0.1 ESE 2 7 1 4 1012.5 - 1.0
26/01:00am 10.1 8.7 9.5 96 0.3 SSW 7 9 4 5 1012.5 - 0.4
26/12:30am 10.1 7.9 9.3 95 0.4 SSW 11 13 6 7 1012.5 - 0.2
26/12:00am 9.9 8.5 9.4 97 0.3 SSW 7 9 4 5 1012.4 - 0.2
 
Date/Time
EST
Temp
°C
App
Temp
°C
Dew
Point
Rel
Hum
%
Delta-T
°C
Wind Press
QNH
hPa
Press
MSL
hPa
Rain
since 9 am
mm
Dir
 
Spd
km/h
Gust
km/h
Spd
kts
Gust
kts
25/11:30pm 10.0 9.8 9.2 95 0.4 CALM 0 7 0 4 1012.9 - 0.2
25/11:00pm 10.1 9.1 8.9 92 0.6 ENE 4 7 2 4 1013.3 - 0.2
25/10:30pm 10.2 9.1 8.3 88 0.9 NNE 4 6 2 3 1014.1 - 0.0
25/10:00pm 10.4 9.2 8.2 86 1.1 NNW 4 7 2 4 1014.6 - 0.0
25/09:30pm 10.3 8.6 8.4 88 0.9 W 7 9 4 5 1015.2 - 0.0
25/09:00pm 10.9 9.8 8.3 84 1.3 NNE 4 7 2 4 1014.8 - 0.0
25/08:30pm 11.1 9.1 7.2 77 1.9 NNE 7 9 4 5 1014.9 - 0.0
25/08:00pm 11.0 9.2 7.1 77 1.9 NE 6 9 3 5 1015.2 - 0.0
25/07:30pm 11.4 9.9 6.9 74 2.2 N 4 6 2 3 1015.7 - 0.0
25/07:00pm 11.4 9.4 7.1 75 2.1 NNE 7 9 4 5 1015.6 - 0.0
25/06:30pm 11.5 9.8 7.4 76 2.0 NNE 6 9 3 5 1015.9 - 0.0
25/06:00pm 11.8 11.1 7.1 73 2.3 CALM 0 0 0 0 1015.7 - 0.0
25/05:30pm 11.8 10.0 7.3 74 2.2 N 6 7 3 4 1015.8 - 0.0
25/05:00pm 12.6 10.7 7.5 71 2.5 N 7 9 4 5 1015.7 - 0.0
25/04:30pm 13.3 11.1 7.7 69 2.8 N 9 11 5 6 1015.9 - 0.0
25/04:00pm 13.7 11.0 7.5 66 3.1 N 11 13 6 7 1016.0 - 0.0
25/03:30pm 13.9 11.5 7.2 64 3.3 N 9 13 5 7 1015.9 - 0.0
25/03:00pm 14.2 12.0 7.7 65 3.3 N 9 15 5 8 1015.8 1015.8 0.0
25/02:30pm 14.1 11.8 7.4 64 3.3 NNW 9 15 5 8 1016.1 - 0.0
25/02:00pm 13.8 11.5 7.3 65 3.2 NW 9 13 5 7 1016.3 - 0.0
25/01:30pm 13.9 11.9 7.0 63 3.4 NNW 7 11 4 6 1016.4 - 0.0
25/01:00pm 14.1 11.1 7.6 65 3.3 NNW 13 19 7 10 1016.8 - 0.0
25/12:30pm 14.0 10.6 7.8 66 3.1 N 15 19 8 10 1017.3 - 0.0
25/12:00pm 13.6 10.3 8.0 69 2.8 N 15 20 8 11 1017.5 1017.5 0.0
25/11:30am 12.2 9.5 7.5 73 2.3 N 11 15 6 8 1018.4 - 0.0
25/11:00am 11.8 9.5 7.5 75 2.1 N 9 15 5 8 1019.2 - 0.0
25/10:30am 10.8 8.8 7.1 78 1.8 NNW 7 11 4 6 1019.7 - 0.0
25/10:00am 8.9 6.9 6.3 84 1.2 WNW 6 7 3 4 1019.8 - 0.0
25/09:30am 7.7 5.6 6.5 92 0.6 NW 7 9 4 5 1019.7 - 0.0
25/09:00am 6.8 6.0 6.7 99 0.0 CALM 0 0 0 0 1020.1 1020.2 0.0
25/08:30am 4.5 3.3 4.5 100 0.0 CALM 0 7 0 4 1020.3 - 0.0
25/08:00am 3.4 1.2 3.3 99 0.0 S 4 7 2 4 1020.4 - 0.0
25/07:30am 2.6 1.0 2.5 99 0.0 CALM 0 0 0 0 1020.1 - 0.0
25/07:00am 1.9 0.2 1.8 99 0.0 CALM 0 0 0 0 1020.0 - 0.0
25/06:30am 1.7 0.0 1.6 99 0.0 CALM 0 7 0 4 1019.9 - 0.0
25/06:00am 1.9 0.2 1.8 99 0.0 CALM 0 0 0 0 1019.5 - 0.0
25/05:30am 2.0 -0.8 1.9 99 0.0 S 6 7 3 4 1019.4 - 0.0
25/05:00am 2.4 0.0 2.3 99 0.0 SE 4 9 2 5 1019.2 - 0.0
25/04:30am 2.6 1.0 2.5 99 0.0 CALM 0 0 0 0 1019.2 - 0.0
25/04:00am 3.6 2.2 3.5 99 0.0 CALM 0 0 0 0 1019.2 - 0.0
25/03:30am 3.7 2.3 3.6 99 0.0 CALM 0 0 0 0 1019.3 - 0.0
25/03:00am 3.3 0.5 3.0 98 0.1 SSW 7 9 4 5 1019.5 - 0.0
25/02:30am 4.8 3.5 4.2 96 0.3 CALM 0 0 0 0 1019.9 - 0.0
25/02:00am 5.6 3.4 5.2 97 0.2 E 6 7 3 4 1020.0 - 0.0
25/01:30am 5.4 4.3 5.0 97 0.2 CALM 0 0 0 0 1020.2 - 0.0
25/01:00am 6.0 4.9 5.3 95 0.3 CALM 0 0 0 0 1020.4 - 0.0
25/12:30am 5.4 4.3 5.0 97 0.2 CALM 0 0 0 0 1020.9 - 0.0
25/12:00am 4.9 3.5 3.7 92 0.5 CALM 0 0 0 0 1021.2 - 0.0
 
Date/Time
EST
Temp
°C
App
Temp
°C
Dew
Point
Rel
Hum
%
Delta-T
°C
Wind Press
QNH
hPa
Press
MSL
hPa
Rain
since 9 am
mm
Dir
 
Spd
km/h
Gust
km/h
Spd
kts
Gust
kts
24/11:30pm 6.4 5.2 4.7 89 0.8 CALM 0 0 0 0 1021.1 - 0.0
24/11:00pm 6.2 4.9 4.2 87 0.9 CALM 0 6 0 3 1021.1 - 0.0
24/10:30pm 7.2 6.0 4.7 84 1.1 CALM 0 0 0 0 1021.2 - 0.0
24/10:00pm 7.5 5.0 4.6 82 1.3 NNE 7 9 4 5 1021.2 - 0.0
24/09:30pm 7.5 5.0 4.5 81 1.3 N 7 9 4 5 1021.2 - 0.0
24/09:00pm 8.1 5.6 4.5 78 1.6 N 7 9 4 5 1021.4 - 0.0
24/08:30pm 8.4 6.1 4.6 77 1.7 NNE 6 7 3 4 1021.4 - 0.0
24/08:00pm 9.4 6.5 4.6 72 2.2 NNW 9 11 5 6 1021.1 - 0.0
24/07:30pm 8.9 6.4 4.9 76 1.8 NNE 7 9 4 5 1020.7 - 0.0
24/07:00pm 9.5 7.2 4.9 73 2.1 W 6 9 3 5 1020.5 - 0.0
24/06:30pm 9.5 7.0 4.9 73 2.1 NW 7 9 4 5 1020.2 - 0.0
24/06:00pm 10.4 7.5 4.8 68 2.6 WNW 9 11 5 6 1020.0 - 0.0
24/05:30pm 11.3 8.1 5.0 65 2.9 W 11 13 6 7 1019.8 - 0.0
24/05:00pm 12.4 9.6 5.3 62 3.3 W 9 13 5 7 1019.9 - 0.0
24/04:30pm 13.7 9.4 5.1 56 4.1 WSW 17 26 9 14 1019.7 - 0.0
24/04:00pm 14.7 9.4 5.2 53 4.5 SW 22 26 12 14 1019.7 - 0.0
24/03:30pm 13.9 9.0 5.3 56 4.1 WSW 20 26 11 14 1019.7 - 0.0
24/03:00pm 14.1 9.4 5.2 55 4.2 SW 19 24 10 13 1019.6 1019.7 0.0
24/02:30pm 14.0 10.2 5.6 57 4.0 W 15 20 8 11 1019.4 - 0.0
24/02:00pm 14.8 10.3 6.1 56 4.2 W 19 24 10 13 1019.5 - 0.0
24/01:30pm 13.8 8.4 4.7 54 4.3 WSW 22 28 12 15 1019.6 - 0.0
24/01:00pm 13.7 7.7 5.3 57 4.0 WSW 26 37 14 20 1020.2 - 0.0
24/12:30pm 13.2 8.3 5.1 58 3.8 WSW 20 28 11 15 1020.7 - 0.0

Other Formats:

Comma delimited format used in spreadsheet applications
http://www.bom.gov.au/fwo/IDN60801/IDN60801.95721.axf

JavaScript Object Notation format (JSON) in row-major order
http://www.bom.gov.au/fwo/IDN60801/IDN60801.95721.json